Time,TemperatureF,DewpointF,PressureIn,WindDirection,WindDirectionDegrees,WindSpeedMPH,WindSpeedGustMPH,Humidity,HourlyPrecipIn,Conditions,Clouds,dailyrainin,SoftwareType,DateUTC
2013-07-31 00:02:00,67.7,63.3,30.19,SSE,151,0.0,0.0,86,0.00,NA,NA,0.00,WeatherLink_script,2013-07-31 04:02:00,
2013-07-31 00:03:00,67.7,63.0,30.19,SSE,151,0.0,0.0,85,0.00,NA,NA,0.00,WeatherLink_script,2013-07-31 04:03:00,
2013-07-31 00:04:00,67.7,63.0,30.19,SSE,151,0.0,0.0,85,0.00,NA,NA,0.00,WeatherLink_script,2013-07-31 04:04:00,
2013-07-31 00:07:00,67.7,63.0,30.19,SSE,151,0.0,0.0,85,0.00,NA,NA,0.00,WeatherLink_script,2013-07-31 04:07:00,
2013-07-31 00:11:00,67.5,62.8,30.19,SSE,151,0.0,0.0,85,0.00,NA,NA,0.00,WeatherLink_script,2013-07-31 04:11:00,
2013-07-31 00:16:00,67.5,62.5,30.19,SSE,151,0.0,0.0,84,0.00,NA,NA,0.00,WeatherLink_script,2013-07-31 04:16:00,
2013-07-31 00:21:00,67.5,62.5,30.19,SSE,151,0.0,0.0,84,0.00,NA,NA,0.00,WeatherLink_script,2013-07-31 04:21:00,
2013-07-31 00:26:00,67.5,62.5,30.19,SSE,151,0.0,0.0,84,0.00,NA,NA,0.00,WeatherLink_script,2013-07-31 04:26:00,
2013-07-31 00:31:00,67.7,63.0,30.19,SSE,151,0.0,0.0,85,0.00,NA,NA,0.00,WeatherLink_script,2013-07-31 04:31:00,
2013-07-31 00:36:00,67.7,63.0,30.19,SSE,151,0.0,0.0,85,0.00,NA,NA,0.00,WeatherLink_script,2013-07-31 04:36:00,
2013-07-31 00:41:00,67.7,63.3,30.19,SSE,151,0.0,0.0,86,0.00,NA,NA,0.00,WeatherLink_script,2013-07-31 04:41:00,
2013-07-31 00:46:00,67.6,62.9,30.19,SSE,151,0.0,0.0,85,0.00,NA,NA,0.00,WeatherLink_script,2013-07-31 04:46:00,
2013-07-31 00:51:00,67.5,62.8,30.19,SSE,151,0.0,0.0,85,0.00,NA,NA,0.00,WeatherLink_script,2013-07-31 04:51:00,
2013-07-31 00:56:00,67.5,62.5,30.19,SSE,151,0.0,0.0,84,0.00,NA,NA,0.00,WeatherLink_script,2013-07-31 04:56:00,
2013-07-31 01:01:00,67.5,62.5,30.19,SSE,151,0.0,0.0,84,0.00,NA,NA,0.00,WeatherLink_script,2013-07-31 05:01:00,
2013-07-31 01:06:00,67.5,62.5,30.19,SSE,151,0.0,0.0,84,0.00,NA,NA,0.00,WeatherLink_script,2013-07-31 05:06:00,
2013-07-31 01:11:00,67.7,62.7,30.19,SSE,151,0.0,0.0,84,0.00,NA,NA,0.00,WeatherLink_script,2013-07-31 05:11:00,
2013-07-31 01:16:00,67.7,62.7,30.19,SSE,151,0.0,0.0,84,0.00,NA,NA,0.00,WeatherLink_script,2013-07-31 05:16:00,
2013-07-31 01:21:00,67.7,63.0,30.19,SSE,151,0.0,0.0,85,0.00,NA,NA,0.00,WeatherLink_script,2013-07-31 05:21:00,
2013-07-31 01:26:00,67.7,63.0,30.19,SSE,151,0.0,0.0,85,0.00,NA,NA,0.00,WeatherLink_script,2013-07-31 05:26:00,
2013-07-31 01:31:00,67.7,63.0,30.19,SSE,151,0.0,0.0,85,0.00,NA,NA,0.00,WeatherLink_script,2013-07-31 05:31:00,
2013-07-31 01:36:00,67.7,63.3,30.19,SSE,151,0.0,0.0,86,0.00,NA,NA,0.00,WeatherLink_script,2013-07-31 05:36:00,
2013-07-31 01:41:00,67.7,63.4,30.19,SSE,151,0.2,1.0,86,0.00,NA,NA,0.00,WeatherLink_script,2013-07-31 05:41:00,
2013-07-31 01:46:00,67.7,63.4,30.19,SSE,151,0.0,0.0,86,0.00,NA,NA,0.00,WeatherLink_script,2013-07-31 05:46:00,
2013-07-31 01:51:00,67.7,63.7,30.19,SSE,151,0.0,0.0,87,0.00,NA,NA,0.00,WeatherLink_script,2013-07-31 05:51:00,
2013-07-31 01:56:00,67.7,63.7,30.18,SSE,151,0.0,0.0,87,0.00,NA,NA,0.00,WeatherLink_script,2013-07-31 05:56:00,
2013-07-31 02:02:00,67.7,63.7,30.18,SSE,151,0.0,0.0,87,0.00,NA,NA,0.00,WeatherLink_script,2013-07-31 06:02:00,
2013-07-31 02:08:00,67.5,63.2,30.18,SSE,151,0.0,0.0,86,0.00,NA,NA,0.00,WeatherLink_script,2013-07-31 06:08:00,
2013-07-31 02:13:00,67.5,63.5,30.18,SSE,151,0.0,0.0,87,0.00,NA,NA,0.00,WeatherLink_script,2013-07-31 06:13:00,
2013-07-31 02:18:00,67.5,63.8,30.18,SSE,151,0.0,0.0,88,0.00,NA,NA,0.00,WeatherLink_script,2013-07-31 06:18:00,
2013-07-31 02:23:00,67.3,63.7,30.18,SSE,151,0.0,0.0,88,0.00,NA,NA,0.00,WeatherLink_script,2013-07-31 06:23:00,
2013-07-31 02:28:00,67.1,63.4,30.18,SSE,151,0.0,0.0,88,0.00,NA,NA,0.00,WeatherLink_script,2013-07-31 06:28:00,
2013-07-31 02:33:00,67.0,63.6,30.18,SSE,151,0.0,0.0,89,0.00,NA,NA,0.00,WeatherLink_script,2013-07-31 06:33:00,
2013-07-31 02:38:00,66.8,63.5,30.18,SSE,151,0.0,0.0,89,0.00,NA,NA,0.00,WeatherLink_script,2013-07-31 06:38:00,
2013-07-31 02:43:00,66.8,63.4,30.18,SSE,151,0.0,0.0,89,0.00,NA,NA,0.00,WeatherLink_script,2013-07-31 06:43:00,
2013-07-31 02:48:00,66.7,63.4,30.18,SSE,151,0.0,0.0,89,0.00,NA,NA,0.00,WeatherLink_script,2013-07-31 06:48:00,
2013-07-31 02:53:00,66.5,63.1,30.18,SSE,151,0.0,0.0,89,0.00,NA,NA,0.00,WeatherLink_script,2013-07-31 06:53:00,
2013-07-31 02:58:00,66.5,63.1,30.18,SSE,151,0.0,0.0,89,0.00,NA,NA,0.00,WeatherLink_script,2013-07-31 06:58:00,
2013-07-31 03:03:00,66.5,63.5,30.18,SSE,151,0.0,0.0,90,0.00,NA,NA,0.00,WeatherLink_script,2013-07-31 07:03:00,
2013-07-31 03:08:00,66.5,63.5,30.18,SSE,151,0.0,0.0,90,0.00,NA,NA,0.00,WeatherLink_script,2013-07-31 07:08:00,
2013-07-31 03:13:00,66.5,63.1,30.18,SSE,151,0.0,0.0,89,0.00,NA,NA,0.00,WeatherLink_script,2013-07-31 07:13:00,
2013-07-31 03:18:00,66.5,63.1,30.18,SSE,151,0.0,0.0,89,0.00,NA,NA,0.00,WeatherLink_script,2013-07-31 07:18:00,
2013-07-31 03:23:00,66.5,63.1,30.18,SSE,151,0.0,0.0,89,0.00,NA,NA,0.00,WeatherLink_script,2013-07-31 07:23:00,
2013-07-31 03:28:00,66.5,63.5,30.18,SSE,151,0.0,0.0,90,0.00,NA,NA,0.00,WeatherLink_script,2013-07-31 07:28:00,
2013-07-31 03:33:00,66.5,63.5,30.18,SSE,151,0.1,1.0,90,0.00,NA,NA,0.00,WeatherLink_script,2013-07-31 07:33:00,
2013-07-31 03:39:00,66.3,63.3,30.18,SSE,151,0.5,2.0,90,0.00,NA,NA,0.00,WeatherLink_script,2013-07-31 07:39:00,
2013-07-31 03:44:00,66.3,63.3,30.18,SSE,151,0.0,0.0,90,0.00,NA,NA,0.00,WeatherLink_script,2013-07-31 07:44:00,
2013-07-31 03:49:00,66.3,63.3,30.18,SSE,151,0.0,0.0,90,0.00,NA,NA,0.00,WeatherLink_script,2013-07-31 07:49:00,
2013-07-31 03:54:00,66.2,63.2,30.18,SSE,151,0.0,0.0,90,0.00,NA,NA,0.00,WeatherLink_script,2013-07-31 07:54:00,
2013-07-31 03:59:00,66.2,63.2,30.18,SSE,151,0.0,0.0,90,0.00,NA,NA,0.00,WeatherLink_script,2013-07-31 07:59:00,
2013-07-31 04:04:00,66.0,63.0,30.17,SSE,151,0.0,0.0,90,0.00,NA,NA,0.00,WeatherLink_script,2013-07-31 08:04:00,
2013-07-31 04:09:00,66.0,63.0,30.17,SSE,151,0.0,0.0,90,0.00,NA,NA,0.00,WeatherLink_script,2013-07-31 08:09:00,
2013-07-31 04:14:00,65.9,62.6,30.17,SSE,151,0.0,0.0,89,0.00,NA,NA,0.00,WeatherLink_script,2013-07-31 08:14:00,
2013-07-31 04:19:00,65.9,62.9,30.17,SSE,151,0.0,0.0,90,0.00,NA,NA,0.00,WeatherLink_script,2013-07-31 08:19:00,
2013-07-31 04:24:00,65.9,62.9,30.17,SSE,151,0.0,0.0,90,0.00,NA,NA,0.00,WeatherLink_script,2013-07-31 08:24:00,
2013-07-31 04:29:00,65.9,62.9,30.17,SSE,151,0.0,0.0,90,0.00,NA,NA,0.00,WeatherLink_script,2013-07-31 08:29:00,
2013-07-31 04:34:00,65.9,63.2,30.17,SSE,151,0.5,1.0,91,0.00,NA,NA,0.00,WeatherLink_script,2013-07-31 08:34:00,
2013-07-31 04:39:00,65.8,63.1,30.17,SSE,151,0.0,0.0,91,0.00,NA,NA,0.00,WeatherLink_script,2013-07-31 08:39:00,
2013-07-31 04:44:00,65.7,63.0,30.17,SSE,151,0.3,1.0,91,0.00,NA,NA,0.00,WeatherLink_script,2013-07-31 08:44:00,
2013-07-31 04:49:00,65.7,63.0,30.17,SSE,151,0.1,1.0,91,0.00,NA,NA,0.00,WeatherLink_script,2013-07-31 08:49:00,
2013-07-31 04:54:00,65.5,62.8,30.17,SSE,151,0.0,0.0,91,0.00,NA,NA,0.00,WeatherLink_script,2013-07-31 08:54:00,
2013-07-31 04:59:00,65.4,62.4,30.17,SSE,151,0.0,0.0,90,0.00,NA,NA,0.00,WeatherLink_script,2013-07-31 08:59:00,
2013-07-31 05:04:00,65.2,62.2,30.17,SSE,151,0.3,1.0,90,0.00,NA,NA,0.00,WeatherLink_script,2013-07-31 09:04:00,
2013-07-31 05:09:00,65.2,62.5,30.17,SSE,151,0.0,0.0,91,0.00,NA,NA,0.00,WeatherLink_script,2013-07-31 09:09:00,
2013-07-31 05:14:00,65.1,62.4,30.16,SSE,151,0.0,0.0,91,0.00,NA,NA,0.00,WeatherLink_script,2013-07-31 09:14:00,
2013-07-31 05:19:00,65.1,62.1,30.16,SSE,151,0.1,1.0,90,0.00,NA,NA,0.00,WeatherLink_script,2013-07-31 09:19:00,
2013-07-31 05:24:00,65.1,62.4,30.17,SSE,151,0.0,0.0,91,0.00,NA,NA,0.00,WeatherLink_script,2013-07-31 09:24:00,
2013-07-31 05:29:00,65.1,62.4,30.16,SSE,151,0.0,0.0,91,0.00,NA,NA,0.00,WeatherLink_script,2013-07-31 09:29:00,
2013-07-31 05:34:00,64.9,62.2,30.17,SSE,151,0.0,0.0,91,0.00,NA,NA,0.00,WeatherLink_script,2013-07-31 09:34:00,
2013-07-31 05:39:00,64.9,62.2,30.17,SSE,151,0.0,0.0,91,0.00,NA,NA,0.00,WeatherLink_script,2013-07-31 09:39:00,
2013-07-31 05:44:00,64.9,62.5,30.17,SSE,151,0.0,0.0,92,0.00,NA,NA,0.00,WeatherLink_script,2013-07-31 09:44:00,
2013-07-31 05:49:00,64.8,62.4,30.17,SSE,151,0.0,0.0,92,0.00,NA,NA,0.00,WeatherLink_script,2013-07-31 09:49:00,
2013-07-31 05:54:00,64.8,62.5,30.17,SSE,151,0.0,0.0,92,0.00,NA,NA,0.00,WeatherLink_script,2013-07-31 09:54:00,
2013-07-31 05:59:00,64.7,62.4,30.17,SSE,151,0.0,0.0,92,0.00,NA,NA,0.00,WeatherLink_script,2013-07-31 09:59:00,
2013-07-31 06:04:00,64.7,62.3,30.17,SSE,151,0.0,0.0,92,0.00,NA,NA,0.00,WeatherLink_script,2013-07-31 10:04:00,
2013-07-31 06:09:00,64.6,62.2,30.17,SSE,151,0.0,0.0,92,0.00,NA,NA,0.00,WeatherLink_script,2013-07-31 10:09:00,
2013-07-31 06:14:00,64.5,62.2,30.17,SSE,151,0.0,0.0,92,0.00,NA,NA,0.00,WeatherLink_script,2013-07-31 10:14:00,
2013-07-31 06:19:00,64.4,62.0,30.17,SSE,151,0.0,0.0,92,0.00,NA,NA,0.00,WeatherLink_script,2013-07-31 10:19:00,
2013-07-31 06:24:00,64.4,62.0,30.17,SSE,151,0.0,0.0,92,0.00,NA,NA,0.00,WeatherLink_script,2013-07-31 10:24:00,
2013-07-31 06:29:00,64.4,62.0,30.17,SSE,151,0.0,0.0,92,0.00,NA,NA,0.00,WeatherLink_script,2013-07-31 10:29:00,
2013-07-31 06:34:00,64.3,61.9,30.18,SSE,151,0.0,0.0,92,0.00,NA,NA,0.00,WeatherLink_script,2013-07-31 10:34:00,
2013-07-31 06:39:00,64.3,61.9,30.18,SSE,151,0.0,0.0,92,0.00,NA,NA,0.00,WeatherLink_script,2013-07-31 10:39:00,
2013-07-31 06:44:00,64.3,61.9,30.18,SSE,151,0.0,0.0,92,0.00,NA,NA,0.00,WeatherLink_script,2013-07-31 10:44:00,
2013-07-31 06:49:00,64.4,62.0,30.18,SSE,151,0.0,0.0,92,0.00,NA,NA,0.00,WeatherLink_script,2013-07-31 10:49:00,
2013-07-31 06:54:00,64.4,62.0,30.18,SSE,151,0.0,0.0,92,0.00,NA,NA,0.00,WeatherLink_script,2013-07-31 10:54:00,
2013-07-31 06:59:00,64.4,62.0,30.18,SSE,151,0.0,0.0,92,0.00,NA,NA,0.00,WeatherLink_script,2013-07-31 10:59:00,
2013-07-31 07:04:00,64.6,62.2,30.18,SSE,151,0.0,0.0,92,0.00,NA,NA,0.00,WeatherLink_script,2013-07-31 11:04:00,
2013-07-31 07:09:00,64.6,62.2,30.18,SSE,151,0.0,0.0,92,0.00,NA,NA,0.00,WeatherLink_script,2013-07-31 11:09:00,
2013-07-31 07:14:00,64.6,61.9,30.18,SSE,151,0.0,0.0,91,0.00,NA,NA,0.00,WeatherLink_script,2013-07-31 11:14:00,
2013-07-31 07:19:00,64.7,61.7,30.18,SSE,151,0.0,0.0,90,0.00,NA,NA,0.00,WeatherLink_script,2013-07-31 11:19:00,
2013-07-31 07:24:00,64.9,61.6,30.18,SSE,151,0.0,0.0,89,0.00,NA,NA,0.00,WeatherLink_script,2013-07-31 11:24:00,
2013-07-31 07:29:00,65.1,61.8,30.18,SSE,151,0.0,0.0,89,0.00,NA,NA,0.00,WeatherLink_script,2013-07-31 11:29:00,
2013-07-31 07:34:00,65.2,61.9,30.18,SSE,151,0.0,0.0,89,0.00,NA,NA,0.00,WeatherLink_script,2013-07-31 11:34:00,
2013-07-31 07:39:00,65.5,61.5,30.18,SSE,151,0.0,0.0,87,0.00,NA,NA,0.00,WeatherLink_script,2013-07-31 11:39:00,
2013-07-31 07:44:00,65.8,62.2,30.18,SSE,151,0.0,0.0,88,0.00,NA,NA,0.00,WeatherLink_script,2013-07-31 11:44:00,
2013-07-31 07:49:00,66.2,62.5,30.18,SSE,151,0.0,0.0,88,0.00,NA,NA,0.00,WeatherLink_script,2013-07-31 11:49:00,
2013-07-31 07:54:00,66.4,62.7,30.18,SSE,151,0.0,0.0,88,0.00,NA,NA,0.00,WeatherLink_script,2013-07-31 11:54:00,
2013-07-31 07:59:00,66.7,62.7,30.18,SSE,151,0.0,0.0,87,0.00,NA,NA,0.00,WeatherLink_script,2013-07-31 11:59:00,
2013-07-31 08:04:00,66.9,63.2,30.18,SSE,151,0.0,0.0,88,0.00,NA,NA,0.00,WeatherLink_script,2013-07-31 12:04:00,
2013-07-31 08:09:00,67.2,63.9,30.18,SSE,151,0.0,0.0,89,0.00,NA,NA,0.00,WeatherLink_script,2013-07-31 12:09:00,
2013-07-31 08:14:00,67.5,64.1,30.18,SSE,151,0.0,0.0,89,0.00,NA,NA,0.00,WeatherLink_script,2013-07-31 12:14:00,
2013-07-31 08:19:00,67.7,64.0,30.18,SSE,151,0.0,0.0,88,0.00,NA,NA,0.00,WeatherLink_script,2013-07-31 12:19:00,
2013-07-31 08:24:00,67.7,64.0,30.18,SSE,151,0.0,0.0,88,0.00,NA,NA,0.00,WeatherLink_script,2013-07-31 12:24:00,
2013-07-31 08:29:00,67.8,64.4,30.18,SSE,151,0.0,0.0,89,0.00,NA,NA,0.00,WeatherLink_script,2013-07-31 12:29:00,
2013-07-31 08:34:00,67.8,64.4,30.18,SSE,151,0.0,0.0,89,0.00,NA,NA,0.00,WeatherLink_script,2013-07-31 12:34:00,
2013-07-31 08:39:00,67.8,64.1,30.18,SSE,151,0.0,0.0,88,0.00,NA,NA,0.00,WeatherLink_script,2013-07-31 12:39:00,
2013-07-31 08:44:00,67.8,64.1,30.18,SSE,151,0.0,0.0,88,0.00,NA,NA,0.00,WeatherLink_script,2013-07-31 12:44:00,
2013-07-31 08:49:00,68.0,65.0,30.18,SSE,151,0.0,0.0,90,0.00,NA,NA,0.00,WeatherLink_script,2013-07-31 12:49:00,
2013-07-31 08:54:00,68.0,64.3,30.18,SSE,151,0.0,0.0,88,0.00,NA,NA,0.00,WeatherLink_script,2013-07-31 12:54:00,
2013-07-31 08:59:00,68.0,64.3,30.18,SSE,151,0.0,0.0,88,0.00,NA,NA,0.00,WeatherLink_script,2013-07-31 12:59:00,
2013-07-31 09:04:00,68.2,64.8,30.18,SSE,151,0.0,0.0,89,0.00,NA,NA,0.00,WeatherLink_script,2013-07-31 13:04:00,
2013-07-31 09:09:00,68.2,63.8,30.19,SSE,151,0.0,0.0,86,0.00,NA,NA,0.00,WeatherLink_script,2013-07-31 13:09:00,
2013-07-31 09:15:00,68.2,63.5,30.18,SSE,151,0.0,0.0,85,0.00,NA,NA,0.00,WeatherLink_script,2013-07-31 13:15:00,
2013-07-31 09:20:00,68.3,63.3,30.18,SSE,151,0.0,0.0,84,0.00,NA,NA,0.00,WeatherLink_script,2013-07-31 13:20:00,
2013-07-31 09:25:00,68.5,64.5,30.18,SSE,151,0.2,1.0,87,0.00,NA,NA,0.00,WeatherLink_script,2013-07-31 13:25:00,
2013-07-31 09:30:00,68.7,64.3,30.18,SSE,151,0.0,0.0,86,0.00,NA,NA,0.00,WeatherLink_script,2013-07-31 13:30:00,
2013-07-31 09:35:00,68.8,64.4,30.18,SSE,151,0.0,0.0,86,0.00,NA,NA,0.00,WeatherLink_script,2013-07-31 13:35:00,
2013-07-31 09:40:00,68.8,64.1,30.18,SSE,151,0.0,0.0,85,0.00,NA,NA,0.00,WeatherLink_script,2013-07-31 13:40:00,
2013-07-31 09:45:00,69.0,65.0,30.18,SSE,151,0.0,0.0,87,0.00,NA,NA,0.00,WeatherLink_script,2013-07-31 13:45:00,
2013-07-31 09:50:00,69.0,65.0,30.18,SSE,151,0.0,0.0,87,0.00,NA,NA,0.00,WeatherLink_script,2013-07-31 13:50:00,
2013-07-31 09:55:00,69.1,64.7,30.18,SSE,151,0.0,0.0,86,0.00,NA,NA,0.00,WeatherLink_script,2013-07-31 13:55:00,
2013-07-31 10:00:00,69.3,64.9,30.18,SSE,151,0.3,1.0,86,0.00,NA,NA,0.00,WeatherLink_script,2013-07-31 14:00:00,
2013-07-31 10:05:00,69.5,64.4,30.17,SSE,151,0.0,0.0,84,0.00,NA,NA,0.00,WeatherLink_script,2013-07-31 14:05:00,
2013-07-31 10:10:00,69.7,64.6,30.17,SSE,151,0.1,1.0,84,0.00,NA,NA,0.00,WeatherLink_script,2013-07-31 14:10:00,
2013-07-31 10:15:00,70.0,64.9,30.17,SSE,151,0.0,0.0,84,0.00,NA,NA,0.00,WeatherLink_script,2013-07-31 14:15:00,
2013-07-31 10:20:00,70.5,65.8,30.17,SSE,151,0.0,0.0,85,0.00,NA,NA,0.00,WeatherLink_script,2013-07-31 14:20:00,
2013-07-31 10:25:00,70.8,65.4,30.17,SSE,151,0.0,0.0,83,0.00,NA,NA,0.00,WeatherLink_script,2013-07-31 14:25:00,
2013-07-31 10:30:00,71.0,65.2,30.17,SSE,151,0.0,0.0,82,0.00,NA,NA,0.00,WeatherLink_script,2013-07-31 14:30:00,
2013-07-31 10:35:00,71.3,65.9,30.17,SSE,151,0.0,0.0,83,0.00,NA,NA,0.00,WeatherLink_script,2013-07-31 14:35:00,
2013-07-31 10:41:00,71.5,65.7,30.17,SSE,151,0.0,0.0,82,0.00,NA,NA,0.00,WeatherLink_script,2013-07-31 14:41:00,
2013-07-31 10:46:00,71.7,65.9,30.16,SSE,151,0.3,2.0,82,0.00,NA,NA,0.00,WeatherLink_script,2013-07-31 14:46:00,
2013-07-31 10:51:00,71.7,65.9,30.17,SSE,151,0.0,0.0,82,0.00,NA,NA,0.00,WeatherLink_script,2013-07-31 14:51:00,
2013-07-31 10:56:00,72.0,66.5,30.17,SSE,151,0.0,0.0,83,0.00,NA,NA,0.00,WeatherLink_script,2013-07-31 14:56:00,
2013-07-31 11:01:00,72.5,66.3,30.16,SSE,151,0.3,2.0,81,0.00,NA,NA,0.00,WeatherLink_script,2013-07-31 15:01:00,
2013-07-31 11:06:00,73.0,66.5,30.16,SSE,149,1.8,3.0,80,0.00,NA,NA,0.00,WeatherLink_script,2013-07-31 15:06:00,
2013-07-31 11:11:00,73.4,66.9,30.16,SSE,148,0.9,2.0,80,0.00,NA,NA,0.00,WeatherLink_script,2013-07-31 15:11:00,
2013-07-31 11:16:00,73.7,66.4,30.16,SSE,148,0.6,2.0,78,0.00,NA,NA,0.00,WeatherLink_script,2013-07-31 15:16:00,
2013-07-31 11:21:00,74.2,68.0,30.16,SSE,148,0.3,1.0,81,0.00,NA,NA,0.00,WeatherLink_script,2013-07-31 15:21:00,
2013-07-31 11:26:00,74.6,66.5,30.16,SSE,148,1.2,3.0,76,0.00,NA,NA,0.00,WeatherLink_script,2013-07-31 15:26:00,
2013-07-31 11:31:00,74.9,67.9,30.16,SSE,148,0.6,3.0,79,0.00,NA,NA,0.00,WeatherLink_script,2013-07-31 15:31:00,
2013-07-31 11:36:00,75.1,67.0,30.16,SSE,148,1.3,2.0,76,0.00,NA,NA,0.00,WeatherLink_script,2013-07-31 15:36:00,
2013-07-31 11:41:00,75.6,67.8,30.16,SSE,148,0.6,1.0,77,0.00,NA,NA,0.00,WeatherLink_script,2013-07-31 15:41:00,
2013-07-31 11:46:00,76.0,68.2,30.15,SSE,148,0.4,1.0,77,0.00,NA,NA,0.00,WeatherLink_script,2013-07-31 15:46:00,
2013-07-31 11:51:00,76.2,67.3,30.15,SSE,148,0.4,2.0,74,0.00,NA,NA,0.00,WeatherLink_script,2013-07-31 15:51:00,
2013-07-31 11:56:00,76.5,66.4,30.15,SSE,148,0.0,0.0,71,0.00,NA,NA,0.00,WeatherLink_script,2013-07-31 15:56:00,
2013-07-31 12:01:00,76.7,67.4,30.15,SSE,148,0.7,2.0,73,0.00,NA,NA,0.00,WeatherLink_script,2013-07-31 16:01:00,
2013-07-31 12:06:00,77.0,68.0,30.15,SSE,149,0.0,0.0,74,0.00,NA,NA,0.00,WeatherLink_script,2013-07-31 16:06:00,
2013-07-31 12:11:00,77.1,67.8,30.15,SSE,148,0.7,2.0,73,0.00,NA,NA,0.00,WeatherLink_script,2013-07-31 16:11:00,
2013-07-31 12:16:00,77.1,67.8,30.15,SSE,148,1.0,2.0,73,0.00,NA,NA,0.00,WeatherLink_script,2013-07-31 16:16:00,
2013-07-31 12:21:00,77.1,67.8,30.15,SSE,148,0.3,1.0,73,0.00,NA,NA,0.00,WeatherLink_script,2013-07-31 16:21:00,
2013-07-31 12:26:00,76.9,67.6,30.15,ESE,121,0.9,2.0,73,0.00,NA,NA,0.00,WeatherLink_script,2013-07-31 16:26:00,
2013-07-31 12:31:00,76.7,68.5,30.15,ESE,121,0.8,3.0,76,0.00,NA,NA,0.00,WeatherLink_script,2013-07-31 16:31:00,
2013-07-31 12:36:00,76.5,68.4,30.14,ESE,121,0.3,1.0,76,0.00,NA,NA,0.00,WeatherLink_script,2013-07-31 16:36:00,
2013-07-31 12:41:00,76.4,68.6,30.14,ESE,122,0.1,1.0,77,0.00,NA,NA,0.00,WeatherLink_script,2013-07-31 16:41:00,
2013-07-31 12:46:00,76.2,68.4,30.14,ESE,122,0.3,1.0,77,0.00,NA,NA,0.00,WeatherLink_script,2013-07-31 16:46:00,
2013-07-31 12:51:00,76.2,68.4,30.15,ESE,122,0.2,1.0,77,0.00,NA,NA,0.00,WeatherLink_script,2013-07-31 16:51:00,
2013-07-31 12:56:00,76.0,68.2,30.14,WSW,239,0.8,3.0,77,0.00,NA,NA,0.00,WeatherLink_script,2013-07-31 16:56:00,
2013-07-31 13:01:00,75.8,67.7,30.14,WSW,239,0.5,2.0,76,0.00,NA,NA,0.00,WeatherLink_script,2013-07-31 17:01:00,
2013-07-31 13:06:00,75.8,68.1,30.14,WSW,239,0.5,1.0,77,0.00,NA,NA,0.00,WeatherLink_script,2013-07-31 17:06:00,
2013-07-31 13:11:00,76.0,68.6,30.14,WSW,239,0.8,2.0,78,0.00,NA,NA,0.00,WeatherLink_script,2013-07-31 17:11:00,
2013-07-31 13:17:00,76.2,68.8,30.14,WSW,239,1.0,3.0,78,0.00,NA,NA,0.00,WeatherLink_script,2013-07-31 17:17:00,
2013-07-31 13:22:00,76.4,68.6,30.14,WSW,239,1.1,2.0,77,0.00,NA,NA,0.00,WeatherLink_script,2013-07-31 17:22:00,
2013-07-31 13:27:00,76.6,68.8,30.14,WSW,239,0.1,1.0,77,0.00,NA,NA,0.00,WeatherLink_script,2013-07-31 17:27:00,
2013-07-31 13:32:00,76.7,68.9,30.14,WSW,238,1.2,3.0,77,0.00,NA,NA,0.00,WeatherLink_script,2013-07-31 17:32:00,
2013-07-31 13:37:00,77.1,69.3,30.14,WSW,238,0.3,1.0,77,0.00,NA,NA,0.00,WeatherLink_script,2013-07-31 17:37:00,
2013-07-31 13:43:00,77.4,69.6,30.13,WSW,238,0.1,1.0,77,0.00,NA,NA,0.00,WeatherLink_script,2013-07-31 17:43:00,
2013-07-31 13:48:00,77.4,69.2,30.13,WSW,238,0.8,3.0,76,0.00,NA,NA,0.00,WeatherLink_script,2013-07-31 17:48:00,
2013-07-31 13:53:00,77.6,69.4,30.13,WSW,238,1.0,2.0,76,0.00,NA,NA,0.00,WeatherLink_script,2013-07-31 17:53:00,
2013-07-31 13:58:00,77.6,68.6,30.13,WSW,238,0.2,1.0,74,0.00,NA,NA,0.00,WeatherLink_script,2013-07-31 17:58:00,
2013-07-31 14:03:00,77.4,69.2,30.13,WSW,238,0.6,2.0,76,0.00,NA,NA,0.00,WeatherLink_script,2013-07-31 18:03:00,
2013-07-31 14:08:00,77.2,69.0,30.13,WSW,238,0.9,3.0,76,0.00,NA,NA,0.00,WeatherLink_script,2013-07-31 18:08:00,
2013-07-31 14:13:00,77.2,68.6,30.13,WSW,238,1.1,3.0,75,0.00,NA,NA,0.00,WeatherLink_script,2013-07-31 18:13:00,
2013-07-31 14:18:00,77.1,68.9,30.13,WSW,238,0.9,3.0,76,0.00,NA,NA,0.00,WeatherLink_script,2013-07-31 18:18:00,
2013-07-31 14:23:00,77.1,68.5,30.12,WSW,238,0.5,2.0,75,0.00,NA,NA,0.00,WeatherLink_script,2013-07-31 18:23:00,
2013-07-31 14:28:00,77.1,69.3,30.12,WSW,238,0.7,2.0,77,0.00,NA,NA,0.00,WeatherLink_script,2013-07-31 18:28:00,
2013-07-31 14:33:00,77.1,68.9,30.12,WSW,238,1.1,2.0,76,0.00,NA,NA,0.00,WeatherLink_script,2013-07-31 18:33:00,
2013-07-31 14:38:00,77.2,69.8,30.12,WSW,238,0.2,1.0,78,0.00,NA,NA,0.00,WeatherLink_script,2013-07-31 18:38:00,
2013-07-31 14:43:00,77.4,70.0,30.12,WSW,238,1.1,2.0,78,0.00,NA,NA,0.00,WeatherLink_script,2013-07-31 18:43:00,
2013-07-31 14:48:00,77.6,69.8,30.12,SW,229,1.1,2.0,77,0.00,NA,NA,0.00,WeatherLink_script,2013-07-31 18:48:00,
2013-07-31 14:53:00,77.8,68.8,30.11,SW,224,1.2,3.0,74,0.00,NA,NA,0.00,WeatherLink_script,2013-07-31 18:53:00,
2013-07-31 14:58:00,77.9,69.7,30.11,SW,224,0.4,1.0,76,0.00,NA,NA,0.00,WeatherLink_script,2013-07-31 18:58:00,
2013-07-31 15:03:00,77.8,69.7,30.11,SW,224,1.1,3.0,76,0.00,NA,NA,0.00,WeatherLink_script,2013-07-31 19:03:00,
2013-07-31 15:08:00,77.9,68.9,30.11,SW,223,1.1,2.0,74,0.00,NA,NA,0.00,WeatherLink_script,2013-07-31 19:08:00,
2013-07-31 15:13:00,77.6,69.4,30.11,SW,215,0.7,2.0,76,0.00,NA,NA,0.00,WeatherLink_script,2013-07-31 19:13:00,
2013-07-31 15:18:00,77.3,69.9,30.11,SW,215,1.0,2.0,78,0.00,NA,NA,0.00,WeatherLink_script,2013-07-31 19:18:00,
2013-07-31 15:23:00,76.9,69.1,30.11,SW,215,0.6,2.0,77,0.00,NA,NA,0.00,WeatherLink_script,2013-07-31 19:23:00,
2013-07-31 15:28:00,76.7,69.7,30.11,SW,215,1.3,2.0,79,0.00,NA,NA,0.00,WeatherLink_script,2013-07-31 19:28:00,
2013-07-31 15:33:00,76.3,69.7,30.11,SSW,208,1.7,3.0,80,0.00,NA,NA,0.00,WeatherLink_script,2013-07-31 19:33:00,
2013-07-31 15:38:00,76.0,69.4,30.11,SSW,209,0.5,2.0,80,0.00,NA,NA,0.00,WeatherLink_script,2013-07-31 19:38:00,
2013-07-31 15:43:00,75.6,69.3,30.11,SSW,208,0.0,0.0,81,0.00,NA,NA,0.00,WeatherLink_script,2013-07-31 19:43:00,
2013-07-31 15:48:00,75.6,69.7,30.10,SSW,208,0.0,0.0,82,0.00,NA,NA,0.00,WeatherLink_script,2013-07-31 19:48:00,
2013-07-31 15:53:00,75.6,70.1,30.10,SSW,209,0.3,1.0,83,0.00,NA,NA,0.00,WeatherLink_script,2013-07-31 19:53:00,
2013-07-31 15:58:00,75.6,70.1,30.10,SSW,208,0.3,1.0,83,0.00,NA,NA,0.00,WeatherLink_script,2013-07-31 19:58:00,
2013-07-31 16:03:00,75.6,69.7,30.10,SSW,209,0.3,1.0,82,0.00,NA,NA,0.00,WeatherLink_script,2013-07-31 20:03:00,
2013-07-31 16:08:00,75.6,69.7,30.10,SSW,209,0.2,1.0,82,0.00,NA,NA,0.00,WeatherLink_script,2013-07-31 20:08:00,
2013-07-31 16:13:00,75.8,69.9,30.10,SSW,208,0.0,0.0,82,0.00,NA,NA,0.00,WeatherLink_script,2013-07-31 20:13:00,
2013-07-31 16:18:00,75.8,69.9,30.10,SSW,209,0.3,1.0,82,0.00,NA,NA,0.00,WeatherLink_script,2013-07-31 20:18:00,
2013-07-31 16:23:00,75.8,69.9,30.10,SSW,209,0.6,2.0,82,0.00,NA,NA,0.00,WeatherLink_script,2013-07-31 20:23:00,
2013-07-31 16:28:00,76.0,70.4,30.09,SSW,208,0.5,2.0,83,0.00,NA,NA,0.00,WeatherLink_script,2013-07-31 20:28:00,
2013-07-31 16:33:00,76.0,70.4,30.09,SW,223,0.6,2.0,83,0.00,NA,NA,0.00,WeatherLink_script,2013-07-31 20:33:00,
2013-07-31 16:38:00,76.0,69.7,30.09,SW,223,0.5,2.0,81,0.00,NA,NA,0.00,WeatherLink_script,2013-07-31 20:38:00,
2013-07-31 16:43:00,75.8,69.9,30.09,SW,224,0.0,0.0,82,0.00,NA,NA,0.00,WeatherLink_script,2013-07-31 20:43:00,
2013-07-31 16:48:00,75.8,70.3,30.09,SW,223,0.5,1.0,83,0.00,NA,NA,0.00,WeatherLink_script,2013-07-31 20:48:00,
2013-07-31 16:53:00,75.5,70.0,30.09,SW,223,0.5,2.0,83,0.00,NA,NA,0.00,WeatherLink_script,2013-07-31 20:53:00,
2013-07-31 16:58:00,75.5,70.0,30.09,SW,224,0.0,0.0,83,0.00,NA,NA,0.00,WeatherLink_script,2013-07-31 20:58:00,
2013-07-31 17:03:00,75.3,69.8,30.09,SW,223,0.9,2.0,83,0.00,NA,NA,0.00,WeatherLink_script,2013-07-31 21:03:00,
2013-07-31 17:08:00,75.1,69.9,30.09,SW,222,0.4,2.0,84,0.00,NA,NA,0.00,WeatherLink_script,2013-07-31 21:08:00,
2013-07-31 17:13:00,74.8,69.6,30.09,SW,223,1.3,2.0,84,0.00,NA,NA,0.00,WeatherLink_script,2013-07-31 21:13:00,
2013-07-31 17:18:00,74.6,69.5,30.09,SW,223,1.2,3.0,84,0.00,NA,NA,0.00,WeatherLink_script,2013-07-31 21:18:00,
2013-07-31 17:24:00,74.4,68.9,30.09,West,262,0.2,1.0,83,0.00,NA,NA,0.00,WeatherLink_script,2013-07-31 21:24:00,
2013-07-31 17:29:00,74.2,68.7,30.09,West,262,0.4,2.0,83,0.00,NA,NA,0.00,WeatherLink_script,2013-07-31 21:29:00,
2013-07-31 17:34:00,73.9,68.8,30.09,WSW,250,1.6,3.0,84,0.00,NA,NA,0.00,WeatherLink_script,2013-07-31 21:34:00,
2013-07-31 17:40:00,73.6,68.8,30.09,WSW,255,0.0,0.0,85,0.00,NA,NA,0.00,WeatherLink_script,2013-07-31 21:40:00,
2013-07-31 17:45:00,73.4,68.6,30.09,WSW,255,0.3,1.0,85,0.00,NA,NA,0.00,WeatherLink_script,2013-07-31 21:45:00,
2013-07-31 17:50:00,73.2,68.8,30.08,WSW,255,0.0,0.0,86,0.00,NA,NA,0.00,WeatherLink_script,2013-07-31 21:50:00,
2013-07-31 17:55:00,73.1,68.6,30.08,South,183,0.0,0.0,86,0.00,NA,NA,0.00,WeatherLink_script,2013-07-31 21:55:00,
2013-07-31 18:00:00,72.9,68.8,30.08,South,183,0.0,0.0,87,0.00,NA,NA,0.00,WeatherLink_script,2013-07-31 22:00:00,
2013-07-31 18:05:00,72.9,68.8,30.08,South,182,0.0,0.0,87,0.00,NA,NA,0.00,WeatherLink_script,2013-07-31 22:05:00,
2013-07-31 18:10:00,72.9,69.1,30.08,South,182,0.0,0.0,88,0.00,NA,NA,0.00,WeatherLink_script,2013-07-31 22:10:00,
2013-07-31 18:15:00,72.9,69.1,30.08,South,182,0.0,0.0,88,0.00,NA,NA,0.00,WeatherLink_script,2013-07-31 22:15:00,
2013-07-31 18:20:00,72.7,68.9,30.08,South,182,0.2,1.0,88,0.00,NA,NA,0.00,WeatherLink_script,2013-07-31 22:20:00,
2013-07-31 18:25:00,72.5,68.4,30.07,South,182,0.2,1.0,87,0.00,NA,NA,0.00,WeatherLink_script,2013-07-31 22:25:00,
2013-07-31 18:30:00,72.2,67.8,30.07,South,182,0.0,0.0,86,0.00,NA,NA,0.00,WeatherLink_script,2013-07-31 22:30:00,
2013-07-31 18:35:00,72.2,67.8,30.07,South,182,0.0,0.0,86,0.00,NA,NA,0.00,WeatherLink_script,2013-07-31 22:35:00,
2013-07-31 18:40:00,72.2,67.8,30.07,South,182,0.0,0.0,86,0.00,NA,NA,0.00,WeatherLink_script,2013-07-31 22:40:00,
2013-07-31 18:45:00,72.2,68.1,30.07,South,182,0.0,0.0,87,0.00,NA,NA,0.00,WeatherLink_script,2013-07-31 22:45:00,
2013-07-31 18:50:00,72.2,68.4,30.06,South,182,0.0,0.0,88,0.00,NA,NA,0.00,WeatherLink_script,2013-07-31 22:50:00,
2013-07-31 18:55:00,72.4,69.0,30.06,South,183,0.0,0.0,89,0.00,NA,NA,0.00,WeatherLink_script,2013-07-31 22:55:00,
2013-07-31 19:00:00,72.2,68.8,30.07,South,182,0.0,0.0,89,0.00,NA,NA,0.00,WeatherLink_script,2013-07-31 23:00:00,
2013-07-31 19:06:00,72.2,68.8,30.06,South,182,0.0,0.0,89,0.00,NA,NA,0.00,WeatherLink_script,2013-07-31 23:06:00,
2013-07-31 19:11:00,72.0,68.6,30.06,South,182,0.0,0.0,89,0.00,NA,NA,0.00,WeatherLink_script,2013-07-31 23:11:00,
2013-07-31 19:16:00,71.9,68.5,30.07,South,182,0.0,0.0,89,0.00,NA,NA,0.00,WeatherLink_script,2013-07-31 23:16:00,
2013-07-31 19:21:00,71.7,68.3,30.07,South,182,0.0,0.0,89,0.00,NA,NA,0.00,WeatherLink_script,2013-07-31 23:21:00,
2013-07-31 19:26:00,71.7,68.6,30.07,South,182,0.0,0.0,90,0.00,NA,NA,0.00,WeatherLink_script,2013-07-31 23:26:00,
2013-07-31 19:31:00,71.5,68.4,30.07,South,182,0.0,0.0,90,0.00,NA,NA,0.00,WeatherLink_script,2013-07-31 23:31:00,
2013-07-31 19:36:00,71.3,68.3,30.07,South,183,0.0,0.0,90,0.01,NA,NA,0.01,WeatherLink_script,2013-07-31 23:36:00,
2013-07-31 19:41:00,71.2,68.4,30.07,South,182,0.1,1.0,91,0.01,NA,NA,0.01,WeatherLink_script,2013-07-31 23:41:00,
2013-07-31 19:46:00,71.0,68.2,30.07,South,182,0.0,0.0,91,0.02,NA,NA,0.02,WeatherLink_script,2013-07-31 23:46:00,
2013-07-31 19:51:00,70.7,67.6,30.07,South,182,0.0,0.0,90,0.02,NA,NA,0.02,WeatherLink_script,2013-07-31 23:51:00,
2013-07-31 19:56:00,70.3,66.9,30.07,South,182,0.0,0.0,89,0.02,NA,NA,0.02,WeatherLink_script,2013-07-31 23:56:00,
2013-07-31 20:01:00,70.0,66.9,30.07,South,182,0.0,0.0,90,0.03,NA,NA,0.03,WeatherLink_script,2013-08-01 00:01:00,
2013-07-31 20:06:00,69.9,66.8,30.07,ESE,120,0.0,0.0,90,0.03,NA,NA,0.03,WeatherLink_script,2013-08-01 00:06:00,
2013-07-31 20:11:00,69.7,66.3,30.07,ESE,120,0.0,0.0,89,0.03,NA,NA,0.03,WeatherLink_script,2013-08-01 00:11:00,
2013-07-31 20:16:00,69.3,66.2,30.07,ESE,120,0.0,0.0,90,0.03,NA,NA,0.03,WeatherLink_script,2013-08-01 00:16:00,
2013-07-31 20:21:00,69.3,66.9,30.07,ESE,120,0.0,0.0,92,0.04,NA,NA,0.04,WeatherLink_script,2013-08-01 00:21:00,
2013-07-31 20:26:00,69.2,66.8,30.07,ESE,120,0.0,0.0,92,0.04,NA,NA,0.04,WeatherLink_script,2013-08-01 00:26:00,
2013-07-31 20:31:00,69.1,67.0,30.07,ESE,120,0.0,0.0,93,0.04,NA,NA,0.04,WeatherLink_script,2013-08-01 00:31:00,
2013-07-31 20:36:00,68.8,66.4,30.07,ESE,120,0.0,0.0,92,0.03,NA,NA,0.04,WeatherLink_script,2013-08-01 00:36:00,
2013-07-31 20:41:00,68.7,66.3,30.07,ESE,120,0.0,0.0,92,0.03,NA,NA,0.04,WeatherLink_script,2013-08-01 00:41:00,
2013-07-31 20:46:00,68.5,66.4,30.07,ESE,120,0.0,0.0,93,0.02,NA,NA,0.04,WeatherLink_script,2013-08-01 00:46:00,
2013-07-31 20:51:00,68.3,66.5,30.07,ESE,120,0.0,0.0,94,0.02,NA,NA,0.04,WeatherLink_script,2013-08-01 00:51:00,
2013-07-31 20:56:00,68.3,66.5,30.07,ESE,120,0.0,0.0,94,0.02,NA,NA,0.04,WeatherLink_script,2013-08-01 00:56:00,
2013-07-31 21:01:00,68.3,66.5,30.07,ESE,120,0.0,0.0,94,0.01,NA,NA,0.04,WeatherLink_script,2013-08-01 01:01:00,
2013-07-31 21:06:00,68.3,66.5,30.07,ESE,120,0.0,0.0,94,0.01,NA,NA,0.04,WeatherLink_script,2013-08-01 01:06:00,
2013-07-31 21:11:00,68.2,66.4,30.07,ESE,120,0.0,0.0,94,0.01,NA,NA,0.04,WeatherLink_script,2013-08-01 01:11:00,
2013-07-31 21:16:00,68.2,66.4,30.08,ESE,120,0.2,1.0,94,0.01,NA,NA,0.04,WeatherLink_script,2013-08-01 01:16:00,
2013-07-31 21:21:00,68.0,66.2,30.08,ESE,120,0.0,0.0,94,0.00,NA,NA,0.04,WeatherLink_script,2013-08-01 01:21:00,
2013-07-31 21:26:00,68.0,66.2,30.08,ESE,120,0.1,1.0,94,0.00,NA,NA,0.04,WeatherLink_script,2013-08-01 01:26:00,
2013-07-31 21:31:00,67.8,66.0,30.08,ESE,120,0.0,0.0,94,0.00,NA,NA,0.04,WeatherLink_script,2013-08-01 01:31:00,
2013-07-31 21:36:00,67.8,66.0,30.08,ESE,120,0.1,1.0,94,0.00,NA,NA,0.04,WeatherLink_script,2013-08-01 01:36:00,
2013-07-31 21:41:00,67.8,66.0,30.08,ESE,120,0.3,1.0,94,0.00,NA,NA,0.04,WeatherLink_script,2013-08-01 01:41:00,
2013-07-31 21:46:00,67.8,66.3,30.08,ESE,120,0.0,0.0,95,0.00,NA,NA,0.04,WeatherLink_script,2013-08-01 01:46:00,
2013-07-31 21:51:00,67.8,66.3,30.08,ESE,120,0.0,0.0,95,0.00,NA,NA,0.04,WeatherLink_script,2013-08-01 01:51:00,
2013-07-31 21:56:00,67.8,66.3,30.08,ESE,120,0.0,0.0,95,0.00,NA,NA,0.04,WeatherLink_script,2013-08-01 01:56:00,
2013-07-31 22:01:00,67.8,66.3,30.08,ESE,120,0.0,0.0,95,0.00,NA,NA,0.04,WeatherLink_script,2013-08-01 02:01:00,
2013-07-31 22:06:00,67.8,66.3,30.07,ESE,120,0.0,0.0,95,0.00,NA,NA,0.04,WeatherLink_script,2013-08-01 02:06:00,
2013-07-31 22:11:00,67.8,66.3,30.07,ESE,120,0.0,0.0,95,0.00,NA,NA,0.04,WeatherLink_script,2013-08-01 02:11:00,
2013-07-31 22:16:00,67.8,66.3,30.07,ESE,120,0.0,0.0,95,0.00,NA,NA,0.04,WeatherLink_script,2013-08-01 02:16:00,
2013-07-31 22:21:00,67.8,66.3,30.07,ESE,120,0.0,0.0,95,0.00,NA,NA,0.04,WeatherLink_script,2013-08-01 02:21:00,
2013-07-31 22:26:00,67.8,66.3,30.07,ESE,120,0.0,0.0,95,0.00,NA,NA,0.04,WeatherLink_script,2013-08-01 02:26:00,
2013-07-31 22:31:00,67.8,66.3,30.07,ESE,120,0.0,0.0,95,0.00,NA,NA,0.04,WeatherLink_script,2013-08-01 02:31:00,
2013-07-31 22:36:00,67.8,66.3,30.07,ESE,120,0.0,0.0,95,0.00,NA,NA,0.04,WeatherLink_script,2013-08-01 02:36:00,
2013-07-31 22:41:00,67.7,66.2,30.06,ESE,120,0.2,1.0,95,0.00,NA,NA,0.04,WeatherLink_script,2013-08-01 02:41:00,
2013-07-31 22:46:00,67.7,66.2,30.07,ESE,120,0.0,0.0,95,0.00,NA,NA,0.04,WeatherLink_script,2013-08-01 02:46:00,
2013-07-31 22:51:00,67.7,66.2,30.06,ESE,120,0.0,0.0,95,0.00,NA,NA,0.04,WeatherLink_script,2013-08-01 02:51:00,
2013-07-31 22:56:00,67.8,66.6,30.06,ESE,120,0.0,0.0,96,0.00,NA,NA,0.04,WeatherLink_script,2013-08-01 02:56:00,
2013-07-31 23:01:00,67.8,66.6,30.06,ESE,120,0.0,0.0,96,0.00,NA,NA,0.04,WeatherLink_script,2013-08-01 03:01:00,
2013-07-31 23:06:00,67.8,66.6,30.06,ESE,120,0.3,1.0,96,0.00,NA,NA,0.04,WeatherLink_script,2013-08-01 03:06:00,
2013-07-31 23:11:00,67.8,66.6,30.06,ESE,120,0.0,0.0,96,0.00,NA,NA,0.04,WeatherLink_script,2013-08-01 03:11:00,
2013-07-31 23:16:00,67.9,66.7,30.06,ESE,120,0.0,0.0,96,0.00,NA,NA,0.04,WeatherLink_script,2013-08-01 03:16:00,
2013-07-31 23:21:00,67.9,66.7,30.06,ESE,120,0.0,0.0,96,0.00,NA,NA,0.04,WeatherLink_script,2013-08-01 03:21:00,
2013-07-31 23:26:00,67.8,66.6,30.06,ESE,120,0.0,0.0,96,0.00,NA,NA,0.04,WeatherLink_script,2013-08-01 03:26:00,
2013-07-31 23:31:00,67.8,66.6,30.06,ESE,120,0.0,0.0,96,0.00,NA,NA,0.04,WeatherLink_script,2013-08-01 03:31:00,
2013-07-31 23:36:00,67.8,66.6,30.05,ESE,120,0.0,0.0,96,0.00,NA,NA,0.04,WeatherLink_script,2013-08-01 03:36:00,
2013-07-31 23:41:00,67.8,66.6,30.05,ESE,120,0.0,0.0,96,0.00,NA,NA,0.04,WeatherLink_script,2013-08-01 03:41:00,
2013-07-31 23:46:00,67.8,66.6,30.05,ESE,121,0.3,2.0,96,0.00,NA,NA,0.04,WeatherLink_script,2013-08-01 03:46:00,
2013-07-31 23:51:00,67.8,66.6,30.05,ESE,120,0.0,0.0,96,0.01,NA,NA,0.05,WeatherLink_script,2013-08-01 03:51:00,
2013-07-31 23:56:00,67.8,66.6,30.05,ESE,120,1.0,3.0,96,0.01,NA,NA,0.05,WeatherLink_script,2013-08-01 03:56:00,